createdAt,value
2019-04-01T00:03:02.781Z,3
2019-04-01T00:08:05.131Z,2.9
2019-04-01T00:13:07.859Z,2.8
2019-04-01T00:18:10.059Z,2.8
2019-04-01T00:23:12.660Z,2.7
2019-04-01T00:28:14.972Z,2.5
2019-04-01T00:33:17.482Z,2.4
2019-04-01T00:38:19.893Z,2.4
2019-04-01T00:43:22.353Z,2.3
2019-04-01T00:48:24.832Z,2.2
2019-04-01T00:53:27.270Z,2.2
2019-04-01T00:58:30.576Z,2.1
2019-04-01T01:03:32.304Z,2
2019-04-01T01:08:34.659Z,1.9
2019-04-01T01:13:37.554Z,1.8
2019-04-01T01:18:39.577Z,1.8
2019-04-01T01:23:42.049Z,1.7
2019-04-01T01:28:44.623Z,1.6
2019-04-01T01:33:46.959Z,1.5
2019-04-01T01:38:49.437Z,1.5
2019-04-01T01:43:51.876Z,1.4
2019-04-01T01:48:54.380Z,1.4
2019-04-01T01:53:56.810Z,1.3
2019-04-01T01:58:59.336Z,1.3
2019-04-01T02:04:01.814Z,1.3
2019-04-01T02:09:04.156Z,1.2
2019-04-01T02:14:07.013Z,1.1
2019-04-01T02:19:09.128Z,1
2019-04-01T02:24:11.569Z,1
2019-04-01T02:29:14.012Z,0.9
2019-04-01T02:34:16.453Z,0.9
2019-04-01T02:39:19.030Z,0.9
2019-04-01T02:44:21.726Z,0.8
2019-04-01T02:49:23.847Z,0.8
2019-04-01T02:54:26.271Z,0.8
2019-04-01T02:59:28.734Z,0.7
2019-04-01T03:04:31.204Z,0.8
2019-04-01T03:09:33.770Z,0.7
2019-04-01T03:14:36.106Z,0.7
2019-04-01T03:19:38.582Z,0.7
2019-04-01T03:24:41.039Z,0.7
2019-04-01T03:29:43.697Z,0.6
2019-04-01T03:34:45.982Z,0.6
2019-04-01T03:39:48.394Z,0.6
2019-04-01T03:44:54.973Z,0.6
2019-04-01T03:49:53.411Z,0.6
2019-04-01T03:54:55.823Z,0.6
2019-04-01T03:59:58.213Z,0.6
2019-04-01T04:05:00.756Z,0.6
2019-04-01T04:10:03.134Z,0.6
2019-04-01T04:15:05.646Z,0.6
2019-04-01T04:20:08.085Z,0.6
2019-04-01T04:25:10.642Z,0.6
2019-04-01T04:30:12.967Z,0.6
2019-04-01T04:35:15.464Z,0.6
2019-04-01T04:40:17.903Z,0.6
2019-04-01T04:45:20.517Z,0.6
2019-04-01T04:50:22.795Z,0.6
2019-04-01T04:55:25.248Z,0.6
2019-04-01T05:00:27.707Z,0.6
2019-04-01T05:05:30.216Z,0.5
2019-04-01T05:10:32.622Z,0.4
2019-04-01T05:15:35.437Z,0.4
2019-04-01T05:20:37.540Z,0.4
2019-04-01T05:25:40.032Z,0.4
2019-04-01T05:30:42.664Z,0.5
2019-04-01T05:35:44.905Z,0.6
2019-04-01T05:40:47.494Z,0.7
2019-04-01T05:45:49.830Z,0.7
2019-04-01T05:50:52.288Z,0.8
2019-04-01T05:55:54.733Z,0.9
2019-04-01T06:00:57.206Z,1.2
2019-04-01T06:05:59.673Z,1.4
2019-04-01T06:11:02.109Z,1.6
2019-04-01T06:16:04.685Z,1.8
2019-04-01T06:21:07.035Z,2
2019-04-01T06:26:09.534Z,2.4
2019-04-01T06:31:12.085Z,2.7
2019-04-01T06:36:14.413Z,3.2
2019-04-01T06:41:16.890Z,5
2019-04-01T06:46:19.625Z,9
2019-04-01T06:51:21.803Z,13
2019-04-01T06:56:24.306Z,16.6
2019-04-01T07:01:26.844Z,19.3
2019-04-01T07:06:29.167Z,21.6
2019-04-01T07:11:31.642Z,23.7
2019-04-01T07:16:34.168Z,25.2
2019-04-01T07:21:36.591Z,25.8
2019-04-01T07:26:39.112Z,26
2019-04-01T07:31:41.463Z,26.3
2019-04-01T07:41:46.398Z,25.8
2019-04-01T07:46:49.216Z,25.7
2019-04-01T07:51:51.328Z,25.6
2019-04-01T07:56:53.764Z,25.5
2019-04-01T08:01:56.210Z,26.6
2019-04-01T08:06:58.684Z,27.1
2019-04-01T08:12:01.250Z,26.1
2019-04-01T08:17:03.881Z,26.3
2019-04-01T08:22:06.048Z,25.3
2019-04-01T08:27:08.524Z,24.8
2019-04-01T08:32:13.690Z,25
2019-04-01T08:37:13.412Z,24.6
2019-04-01T08:42:15.907Z,23.6
2019-04-01T08:47:18.339Z,23.7
2019-04-01T08:52:20.847Z,23.9
2019-04-01T08:57:23.296Z,24.1
2019-04-01T09:02:25.721Z,24
2019-04-01T09:07:28.193Z,24.8
2019-04-01T09:12:30.805Z,25.2
2019-04-01T09:17:33.094Z,26.1
2019-04-01T09:22:35.570Z,27.5
2019-04-01T09:27:38.070Z,28.1
2019-04-01T09:32:40.474Z,29.2
2019-04-01T09:37:42.992Z,29.7
2019-04-01T09:42:45.439Z,30.8
2019-04-01T09:47:47.830Z,31.8
2019-04-01T09:52:50.401Z,31.9
2019-04-01T09:57:52.818Z,33
2019-04-01T10:02:55.223Z,33.8
2019-04-01T10:07:57.793Z,35.4
2019-04-01T10:13:00.145Z,34.3
2019-04-01T10:18:07.669Z,32.1
2019-04-01T10:23:05.384Z,32.6
2019-04-01T10:28:07.598Z,33
2019-04-01T10:33:10.013Z,32.6
2019-04-01T10:38:12.545Z,32.8
2019-04-01T10:43:14.921Z,33.1
2019-04-01T10:48:17.415Z,31.9
2019-04-01T10:53:19.909Z,29.7
2019-04-01T10:58:22.374Z,28.1
2019-04-01T11:03:25.118Z,26.3
2019-04-01T11:08:27.253Z,25.1
2019-04-01T11:13:29.659Z,23.9
2019-04-01T11:18:32.137Z,22.9
2019-04-01T11:23:34.587Z,23.1
2019-04-01T11:28:37.140Z,24.3
2019-04-01T11:33:39.839Z,25.2
2019-04-01T11:38:42.017Z,27.3
2019-04-01T11:43:44.531Z,28.5
2019-04-01T11:48:46.887Z,28.3
2019-04-01T11:53:49.381Z,28.2
2019-04-01T11:58:51.825Z,28.4
2019-04-01T12:03:54.259Z,28.9
2019-04-01T12:08:56.702Z,29
2019-04-01T12:13:59.310Z,29.3
2019-04-01T12:19:01.653Z,28.5
2019-04-01T12:24:04.084Z,28.7
2019-04-01T12:29:06.640Z,30
2019-04-01T12:34:09.316Z,29.6
2019-04-01T12:44:13.939Z,26.8
2019-04-01T12:49:16.478Z,28.1
2019-04-01T12:54:18.850Z,29.9
2019-04-01T12:59:21.434Z,29.6
2019-04-01T13:04:24.147Z,29
2019-04-01T13:09:26.270Z,27.5
2019-04-01T13:14:28.703Z,26.6
2019-04-01T13:19:31.159Z,25.3
2019-04-01T13:24:33.595Z,24.9
2019-04-01T13:29:36.046Z,25.9
2019-04-01T13:34:39.358Z,27.3
2019-04-01T13:39:40.971Z,26.7
2019-04-01T13:44:43.453Z,24.4
2019-04-01T13:49:45.954Z,21.7
2019-04-01T13:54:48.362Z,19.9
2019-04-01T13:59:51.750Z,18.6
2019-04-01T14:04:53.612Z,18.1
2019-04-01T14:09:55.755Z,17.5
2019-04-01T14:20:00.650Z,16.5
2019-04-01T14:25:03.115Z,16.1
2019-04-01T14:30:05.776Z,15.9
2019-04-01T14:35:08.303Z,15.6
2019-04-01T14:40:10.472Z,15.4
2019-04-01T14:45:12.981Z,15
2019-04-01T14:50:15.444Z,14.8
2019-04-01T14:55:17.840Z,14.8
2019-04-01T15:00:20.389Z,14.8
2019-04-01T15:05:23.091Z,14.6
2019-04-01T15:10:25.228Z,14.4
2019-04-01T15:15:27.695Z,14.3
2019-04-01T15:20:30.266Z,14.3
2019-04-01T15:25:32.586Z,14.3
2019-04-01T15:30:35.098Z,14.1
2019-04-01T15:35:37.801Z,13.8
2019-04-01T15:40:40.005Z,13.7
2019-04-01T15:45:42.450Z,13.4
2019-04-01T15:50:44.934Z,13.2
2019-04-01T15:55:47.633Z,13
2019-04-01T16:00:49.834Z,12.9
2019-04-01T16:05:52.606Z,12.8
2019-04-01T16:10:54.699Z,12.7
2019-04-01T16:15:57.207Z,12.5
2019-04-01T16:20:59.647Z,12.5
2019-04-01T16:26:02.102Z,12.4
2019-04-01T16:31:04.655Z,12.3
2019-04-01T16:36:07.287Z,12.2
2019-04-01T16:41:09.480Z,12.1
2019-04-01T16:46:12.284Z,11.9
2019-04-01T16:51:14.398Z,11.8
2019-04-01T16:56:16.826Z,11.6
2019-04-01T17:01:19.288Z,11.5
2019-04-01T17:06:22.089Z,11.3
2019-04-01T17:11:24.207Z,11.1
2019-04-01T17:16:26.709Z,10.8
2019-04-01T17:21:29.141Z,10.7
2019-04-01T17:26:31.602Z,10.5
2019-04-01T17:31:34.023Z,10.3
2019-04-01T17:36:36.841Z,10.1
2019-04-01T17:41:38.960Z,9.8
2019-04-01T17:46:41.409Z,9.7
2019-04-01T17:51:44.089Z,9.5
2019-04-01T17:56:47.096Z,9.3
2019-04-01T18:01:49.083Z,9.1
2019-04-01T18:06:51.324Z,8.9
2019-04-01T18:11:54.313Z,8.8
2019-04-01T18:16:56.138Z,8.7
2019-04-01T18:22:00.095Z,8.5
2019-04-01T18:27:01.213Z,8.4
2019-04-01T18:32:03.649Z,8.3
2019-04-01T18:37:06.319Z,8.2
2019-04-01T18:42:08.532Z,8.1
2019-04-01T18:47:10.891Z,8
2019-04-01T18:52:13.373Z,7.9
2019-04-01T18:57:15.802Z,7.8
2019-04-01T19:02:18.250Z,7.7
2019-04-01T19:07:21.922Z,7.6
2019-04-01T19:12:23.202Z,7.5
2019-04-01T19:17:25.661Z,7.4
2019-04-01T19:22:28.099Z,7.2
2019-04-01T19:27:30.526Z,7.1
2019-04-01T19:32:32.995Z,6.9
2019-04-01T19:37:35.759Z,6.8
2019-04-01T19:42:39.533Z,6.7
2019-04-01T19:47:40.391Z,6.7
2019-04-01T19:52:44.401Z,6.7
2019-04-01T19:57:46.155Z,6.7
2019-04-01T20:02:47.811Z,6.7
2019-04-01T20:07:50.551Z,6.7
2019-04-01T20:12:52.784Z,6.6
2019-04-01T20:17:55.202Z,6.6
2019-04-01T20:22:57.603Z,6.5
2019-04-01T20:28:00.072Z,6.5
2019-04-01T20:33:02.536Z,6.5
2019-04-01T20:38:05.229Z,6.4
2019-04-01T20:43:07.424Z,6.4
2019-04-01T20:48:09.936Z,6.4
2019-04-01T20:53:12.375Z,6.4
2019-04-01T20:58:14.830Z,6.5
2019-04-01T21:03:17.224Z,6.4
2019-04-01T21:08:19.982Z,6.4
2019-04-01T21:13:22.336Z,6.4
2019-04-01T21:18:24.589Z,6.3
2019-04-01T21:23:27.073Z,6.2
2019-04-01T21:28:29.521Z,6.2
2019-04-01T21:33:31.967Z,6.2
2019-04-01T21:38:34.728Z,6.2
2019-04-01T21:43:37.071Z,6.2
2019-04-01T21:48:39.757Z,6.1
2019-04-01T21:53:41.798Z,6
2019-04-01T21:58:44.277Z,6
2019-04-01T22:03:46.728Z,6
2019-04-01T22:08:49.463Z,5.9
2019-04-01T22:13:51.639Z,5.8
2019-04-01T22:18:54.116Z,5.7
2019-04-01T22:28:58.983Z,5.6
2019-04-01T22:34:01.445Z,5.6
2019-04-01T22:39:04.323Z,5.5
2019-04-01T22:44:06.390Z,5.5
2019-04-01T22:49:08.813Z,5.4
2019-04-01T22:54:11.282Z,5.4
2019-04-01T22:59:13.751Z,5.3
2019-04-01T23:04:16.182Z,5.3
2019-04-01T23:09:18.978Z,5.3
2019-04-01T23:14:21.127Z,5.2
2019-04-01T23:19:23.593Z,5.2
2019-04-01T23:24:26.027Z,5.2
2019-04-01T23:29:28.484Z,5.2
2019-04-01T23:34:31.042Z,5.2
2019-04-01T23:39:34.264Z,5.2
2019-04-01T23:44:35.869Z,5.1
2019-04-01T23:49:40.152Z,5.1
2019-04-01T23:54:40.770Z,5.1
2019-04-01T23:59:43.258Z,5.1
